createdAt,value
2019-04-11T00:00:43.786Z,7.65
2019-04-11T00:05:41.171Z,10.82
2019-04-11T00:08:10.148Z,7.97
2019-04-11T00:10:39.569Z,7.37
2019-04-11T00:13:17.367Z,7.78
2019-04-11T00:15:38.643Z,11.80
2019-04-11T00:18:08.267Z,8.40
2019-04-11T00:20:37.017Z,7.95
2019-04-11T00:23:06.090Z,7.42
2019-04-11T00:25:35.779Z,7.72
2019-04-11T00:28:05.605Z,10.50
2019-04-11T00:30:34.683Z,9.00
2019-04-11T00:33:03.490Z,8.70
2019-04-11T00:35:33.492Z,10.18
2019-04-11T00:38:02.430Z,13.28
2019-04-11T00:40:31.267Z,8.93
2019-04-11T00:43:01.014Z,7.67
2019-04-11T00:45:29.754Z,9.55
2019-04-11T00:47:58.184Z,8.20
2019-04-11T00:50:27.386Z,5.97
2019-04-11T00:52:57.892Z,7.78
2019-04-11T00:55:27.187Z,8.95
2019-04-11T00:57:57.007Z,7.47
2019-04-11T01:00:26.986Z,8.73
2019-04-11T01:02:55.894Z,7.92
2019-04-11T01:05:25.537Z,8.18
2019-04-11T01:07:55.446Z,9.98
2019-04-11T01:10:24.641Z,11.85
2019-04-11T01:12:53.272Z,8.08
2019-04-11T01:15:23.782Z,8.10
2019-04-11T01:17:52.482Z,9.28
2019-04-11T01:20:21.635Z,11.20
2019-04-11T01:22:50.796Z,9.23
2019-04-11T01:25:20.100Z,10.18
2019-04-11T01:27:48.739Z,9.85
2019-04-11T01:30:20.738Z,9.45
2019-04-11T01:32:50.622Z,11.05
2019-04-11T01:35:19.314Z,10.30
2019-04-11T01:37:48.163Z,11.10
2019-04-11T01:40:16.627Z,11.08
2019-04-11T01:42:45.071Z,10.48
2019-04-11T01:45:14.243Z,11.30
2019-04-11T01:47:47.959Z,9.53
2019-04-11T01:50:18.941Z,10.00
2019-04-11T01:52:48.665Z,10.80
2019-04-11T01:55:17.147Z,11.08
2019-04-11T01:57:46.474Z,9.03
2019-04-11T02:00:17.670Z,11.38
2019-04-11T02:02:47.858Z,12.70
2019-04-11T02:05:27.251Z,9.03
2019-04-11T02:07:55.653Z,10.18
2019-04-11T02:10:24.478Z,10.00
2019-04-11T02:12:53.275Z,10.93
2019-04-11T02:15:22.322Z,10.98
2019-04-11T02:17:50.950Z,8.90
2019-04-11T02:20:19.560Z,11.10
2019-04-11T02:22:52.892Z,11.22
2019-04-11T02:25:38.735Z,11.60
2019-04-11T02:28:08.617Z,11.05
2019-04-11T02:30:41.060Z,10.93
2019-04-11T02:33:09.998Z,13.25
2019-04-11T02:35:40.425Z,11.55
2019-04-11T02:38:12.020Z,12.60
2019-04-11T02:40:41.135Z,12.82
2019-04-11T02:43:11.287Z,14.00
2019-04-11T02:45:54.460Z,12.95
2019-04-11T02:48:13.235Z,12.00
2019-04-11T02:50:41.559Z,14.40
2019-04-11T02:53:12.405Z,13.00
2019-04-11T02:55:41.595Z,13.60
2019-04-11T02:58:12.424Z,12.40
2019-04-11T03:00:42.271Z,13.10
2019-04-11T03:03:10.829Z,17.15
2019-04-11T03:05:39.743Z,13.20
2019-04-11T03:08:12.024Z,13.05
2019-04-11T03:10:40.971Z,13.00
2019-04-11T03:13:10.539Z,13.38
2019-04-11T03:15:56.223Z,13.60
2019-04-11T03:18:11.940Z,14.43
2019-04-11T03:20:47.808Z,14.15
2019-04-11T03:23:12.184Z,25.25
2019-04-11T03:25:40.594Z,16.27
2019-04-11T03:28:13.725Z,13.90
2019-04-11T03:30:59.255Z,14.10
2019-04-11T03:34:09.658Z,12.90
2019-04-11T03:38:38.147Z,12.93
2019-04-11T03:40:57.053Z,14.18
2019-04-11T03:43:24.246Z,16.97
2019-04-11T03:45:58.929Z,12.90
2019-04-11T03:48:27.583Z,14.60
2019-04-11T03:50:42.486Z,14.78
2019-04-11T03:53:11.661Z,13.48
2019-04-11T03:55:40.927Z,13.53
2019-04-11T03:58:09.671Z,15.43
2019-04-11T04:00:41.446Z,16.77
2019-04-11T04:03:09.285Z,16.73
2019-04-11T04:05:39.038Z,15.65
2019-04-11T04:08:08.882Z,18.17
2019-04-11T04:10:39.512Z,13.95
2019-04-11T04:13:15.253Z,14.80
2019-04-11T04:16:00.276Z,13.90
2019-04-11T04:18:17.290Z,16.50
2019-04-11T04:20:57.629Z,15.95
2019-04-11T04:23:29.452Z,16.37
2019-04-11T04:25:58.505Z,16.60
2019-04-11T04:28:27.371Z,16.52
2019-04-11T04:30:57.951Z,15.30
2019-04-11T04:33:27.428Z,14.45
2019-04-11T04:35:57.882Z,15.15
2019-04-11T04:38:27.338Z,16.70
2019-04-11T04:41:09.998Z,18.00
2019-04-11T04:43:29.678Z,15.75
2019-04-11T04:46:16.997Z,18.70
2019-04-11T04:48:29.956Z,16.85
2019-04-11T04:51:05.170Z,16.55
2019-04-11T04:53:30.806Z,15.18
2019-04-11T04:56:00.363Z,15.88
2019-04-11T04:58:29.315Z,17.45
2019-04-11T05:00:58.544Z,15.08
2019-04-11T05:03:27.211Z,14.45
2019-04-11T05:05:55.703Z,17.98
2019-04-11T05:08:25.037Z,17.77
2019-04-11T05:10:53.601Z,17.62
2019-04-11T05:13:23.939Z,16.40
2019-04-11T05:16:05.743Z,14.98
2019-04-11T05:18:23.703Z,15.60
2019-04-11T05:20:52.788Z,15.90
2019-04-11T05:23:24.118Z,17.85
2019-04-11T05:25:53.050Z,14.93
2019-04-11T05:28:21.526Z,16.97
2019-04-11T05:30:51.163Z,17.55
2019-04-11T05:33:19.655Z,17.90
2019-04-11T05:35:48.108Z,15.35
2019-04-11T05:38:16.861Z,15.83
2019-04-11T05:40:46.111Z,17.73
2019-04-11T05:43:15.564Z,17.37
2019-04-11T05:45:44.186Z,18.23
2019-04-11T05:48:27.128Z,20.30
2019-04-11T05:50:56.194Z,16.57
2019-04-11T05:53:25.080Z,16.45
2019-04-11T05:55:55.208Z,16.55
2019-04-11T05:58:24.138Z,18.12
2019-04-11T06:00:58.283Z,16.97
2019-04-11T06:03:28.302Z,18.37
2019-04-11T06:06:04.806Z,16.00
2019-04-11T06:08:33.625Z,17.73
2019-04-11T06:11:05.509Z,18.52
2019-04-11T06:13:42.800Z,18.45
2019-04-11T06:16:12.535Z,16.05
2019-04-11T06:18:45.439Z,22.10
2019-04-11T06:21:14.394Z,17.87
2019-04-11T06:23:47.748Z,16.10
2019-04-11T06:26:18.858Z,18.20
2019-04-11T06:28:47.466Z,17.27
2019-04-11T06:31:20.368Z,17.67
2019-04-11T06:36:30.122Z,16.65
2019-04-11T06:39:03.561Z,18.12
2019-04-11T06:41:50.618Z,17.07
2019-04-11T06:44:26.324Z,18.48
2019-04-11T06:47:00.718Z,18.15
2019-04-11T06:49:36.650Z,19.92
2019-04-11T06:52:07.079Z,16.35
2019-04-11T06:54:37.237Z,15.70
2019-04-11T06:57:07.633Z,17.45
2019-04-11T06:59:46.667Z,19.40
2019-04-11T07:02:19.747Z,15.05
2019-04-11T07:04:46.866Z,14.98
2019-04-11T07:07:16.390Z,17.17
2019-04-11T07:09:53.468Z,17.02
2019-04-11T07:12:26.892Z,14.73
2019-04-11T07:14:57.969Z,14.03
2019-04-11T07:17:45.817Z,18.05
2019-04-11T07:20:33.502Z,15.72
2019-04-11T07:23:20.463Z,16.12
2019-04-11T07:25:56.466Z,16.10
2019-04-11T07:28:27.342Z,15.80
2019-04-11T07:31:14.623Z,15.55
2019-04-11T07:34:02.442Z,13.50
2019-04-11T07:36:49.238Z,14.35
2019-04-11T07:39:25.600Z,15.98
2019-04-11T07:41:56.137Z,14.05
2019-04-11T07:44:41.404Z,13.72
2019-04-11T07:47:18.096Z,17.52
2019-04-11T07:49:43.569Z,12.13
2019-04-11T07:52:13.227Z,13.90
2019-04-11T07:54:41.625Z,14.65
2019-04-11T07:57:20.542Z,12.47
2019-04-11T07:59:51.202Z,12.45
2019-04-11T08:02:37.700Z,10.72
2019-04-11T08:05:25.088Z,12.03
2019-04-11T08:08:13.252Z,13.85
2019-04-11T08:10:50.535Z,12.47
2019-04-11T08:13:32.771Z,11.97
2019-04-11T08:16:20.411Z,12.90
2019-04-11T08:19:07.613Z,13.32
2019-04-11T08:21:39.059Z,14.43
2019-04-11T08:24:14.819Z,13.00
2019-04-11T08:27:01.131Z,11.30
2019-04-11T08:29:30.546Z,11.20
2019-04-11T08:32:09.762Z,13.75
2019-04-11T08:34:45.914Z,9.40
2019-04-11T08:37:32.333Z,13.65
2019-04-11T08:40:01.790Z,11.45
2019-04-11T08:42:42.383Z,10.60
2019-04-11T08:45:12.420Z,11.40
2019-04-11T08:47:49.296Z,13.85
2019-04-11T08:50:18.505Z,10.38
2019-04-11T08:53:04.617Z,14.80
2019-04-11T08:55:45.639Z,13.58
2019-04-11T08:58:06.480Z,12.75
2019-04-11T09:00:37.978Z,11.57
2019-04-11T09:03:09.159Z,9.98
2019-04-11T09:05:39.264Z,9.45
2019-04-11T09:08:26.724Z,12.35
2019-04-11T09:11:00.192Z,10.18
2019-04-11T09:13:39.740Z,9.03
2019-04-11T09:16:21.761Z,13.55
2019-04-11T09:18:52.442Z,12.10
2019-04-11T09:21:37.799Z,9.73
2019-04-11T09:24:08.335Z,12.20
2019-04-11T09:26:50.077Z,9.10
2019-04-11T09:29:20.100Z,9.85
2019-04-11T09:32:07.637Z,10.00
2019-04-11T09:34:37.737Z,9.55
2019-04-11T09:37:09.359Z,10.28
2019-04-11T09:39:43.425Z,8.68
2019-04-11T09:42:28.450Z,9.50
2019-04-11T09:45:14.915Z,7.58
2019-04-11T09:48:09.374Z,7.67
2019-04-11T09:50:34.203Z,8.33
2019-04-11T09:53:03.565Z,9.13
2019-04-11T09:55:45.801Z,8.55
2019-04-11T09:58:15.831Z,7.70
2019-04-11T10:00:47.276Z,11.75
2019-04-11T10:03:20.476Z,8.15
2019-04-11T10:05:54.647Z,8.63
2019-04-11T10:08:35.035Z,7.70
2019-04-11T10:11:22.113Z,8.45
2019-04-11T10:14:05.187Z,10.63
2019-04-11T10:19:13.865Z,9.48
2019-04-11T10:21:43.963Z,11.25
2019-04-11T10:24:30.569Z,9.90
2019-04-11T10:27:04.605Z,10.35
2019-04-11T10:29:51.118Z,7.47
2019-04-11T10:32:39.304Z,9.95
2019-04-11T10:35:22.043Z,7.50
2019-04-11T10:37:51.926Z,6.92
2019-04-11T10:40:30.817Z,7.17
2019-04-11T10:43:00.948Z,7.75
2019-04-11T10:45:31.231Z,7.35
2019-04-11T10:48:01.106Z,7.85
2019-04-11T10:50:50.670Z,8.55
2019-04-11T10:53:19.463Z,10.10
2019-04-11T10:55:55.454Z,9.45
2019-04-11T10:58:26.744Z,7.70
2019-04-11T11:00:59.805Z,8.85
2019-04-11T11:03:30.657Z,8.63
2019-04-11T11:06:00.999Z,8.05
2019-04-11T11:08:43.741Z,9.48
2019-04-11T11:11:23.857Z,7.60
2019-04-11T11:13:58.405Z,8.05
2019-04-11T11:16:30.567Z,8.83
2019-04-11T11:19:31.581Z,9.35
2019-04-11T11:21:35.262Z,10.13
2019-04-11T11:24:13.948Z,7.97
2019-04-11T11:26:43.284Z,6.75
2019-04-11T11:29:31.965Z,7.35
2019-04-11T11:32:05.233Z,9.10
2019-04-11T11:34:38.937Z,9.48
2019-04-11T11:37:18.286Z,8.88
2019-04-11T11:39:49.115Z,9.30
2019-04-11T11:42:22.200Z,8.00
2019-04-11T11:45:07.135Z,7.00
2019-04-11T11:47:46.882Z,8.33
2019-04-11T11:50:23.780Z,9.08
2019-04-11T11:53:13.093Z,8.60
2019-04-11T11:55:41.429Z,8.40
2019-04-11T11:58:14.364Z,7.95
2019-04-11T12:00:42.102Z,9.03
2019-04-11T12:03:12.886Z,8.98
2019-04-11T12:05:50.846Z,7.12
2019-04-11T12:08:37.202Z,8.20
2019-04-11T12:11:08.118Z,8.43
2019-04-11T12:13:40.580Z,6.47
2019-04-11T12:16:10.146Z,6.10
2019-04-11T12:18:46.547Z,7.10
2019-04-11T12:21:21.897Z,8.78
2019-04-11T12:24:01.138Z,8.78
2019-04-11T12:26:32.212Z,7.25
2019-04-11T12:29:21.895Z,6.78
2019-04-11T12:31:52.328Z,6.12
2019-04-11T12:34:41.003Z,5.70
2019-04-11T12:37:12.492Z,6.20
2019-04-11T12:39:48.407Z,7.17
2019-04-11T12:42:18.558Z,10.38
2019-04-11T12:45:06.449Z,9.35
2019-04-11T12:47:38.301Z,7.28
2019-04-11T12:50:28.032Z,8.05
2019-04-11T12:52:58.395Z,7.05
2019-04-11T12:55:31.460Z,7.95
2019-04-11T12:58:10.184Z,7.08
2019-04-11T13:00:51.820Z,9.15
2019-04-11T13:03:25.044Z,9.45
2019-04-11T13:05:55.092Z,8.73
2019-04-11T13:08:34.298Z,7.83
2019-04-11T13:11:02.790Z,6.40
2019-04-11T13:13:38.715Z,5.55
2019-04-11T13:16:12.765Z,10.43
2019-04-11T13:18:59.371Z,6.53
2019-04-11T13:21:29.399Z,6.65
2019-04-11T13:24:05.164Z,7.70
2019-04-11T13:26:50.587Z,5.70
2019-04-11T13:29:32.912Z,7.10
2019-04-11T13:32:06.984Z,6.85
2019-04-11T13:34:40.114Z,8.23
2019-04-11T13:37:26.320Z,5.45
2019-04-11T13:40:02.863Z,5.80
2019-04-11T13:42:49.893Z,6.67
2019-04-11T13:45:19.117Z,8.25
2019-04-11T13:48:06.698Z,6.10
2019-04-11T13:50:36.721Z,6.92
2019-04-11T13:53:06.776Z,6.97
2019-04-11T13:55:35.603Z,10.70
2019-04-11T13:58:06.215Z,7.28
2019-04-11T14:00:39.258Z,7.10
2019-04-11T14:03:25.686Z,6.30
2019-04-11T14:05:55.859Z,7.72
2019-04-11T14:08:28.814Z,8.83
2019-04-11T14:11:07.729Z,7.47
2019-04-11T14:13:43.582Z,7.15
2019-04-11T14:16:22.739Z,6.62
2019-04-11T14:18:52.790Z,7.37
2019-04-11T14:21:22.884Z,8.15
2019-04-11T14:23:56.010Z,6.97
2019-04-11T14:26:26.111Z,7.30
2019-04-11T14:28:55.871Z,6.45
2019-04-11T14:31:28.983Z,5.85
2019-04-11T14:33:59.430Z,7.03
2019-04-11T14:36:45.884Z,5.97
2019-04-11T14:39:20.357Z,6.47
2019-04-11T14:42:02.982Z,6.37
2019-04-11T14:44:33.375Z,6.22
2019-04-11T14:47:18.672Z,8.00
2019-04-11T14:49:48.795Z,6.00
2019-04-11T14:52:35.258Z,6.03
2019-04-11T14:55:04.572Z,7.10
2019-04-11T14:57:34.908Z,6.97
2019-04-11T15:00:09.131Z,7.95
2019-04-11T15:02:45.534Z,6.30
2019-04-11T15:05:15.598Z,7.22
2019-04-11T15:07:46.098Z,5.80
2019-04-11T15:10:21.762Z,5.97
2019-04-11T15:12:51.478Z,6.70
2019-04-11T15:15:24.888Z,9.75
2019-04-11T15:17:55.887Z,9.10
2019-04-11T15:20:26.148Z,6.90
2019-04-11T15:23:11.348Z,7.58
2019-04-11T15:25:41.439Z,6.85
2019-04-11T15:28:17.755Z,5.58
2019-04-11T15:30:56.751Z,6.03
2019-04-11T15:33:43.664Z,5.92
2019-04-11T15:36:31.598Z,6.40
2019-04-11T15:39:18.341Z,6.42
2019-04-11T15:41:48.474Z,8.73
2019-04-11T15:44:18.986Z,8.95
2019-04-11T15:46:48.419Z,6.15
2019-04-11T15:49:36.982Z,7.20
2019-04-11T15:52:07.579Z,7.12
2019-04-11T15:54:53.043Z,14.00
2019-04-11T15:57:26.992Z,5.67
2019-04-11T15:59:57.426Z,6.45
2019-04-11T16:02:36.773Z,10.78
2019-04-11T16:05:24.376Z,8.23
2019-04-11T16:07:54.457Z,10.50
2019-04-11T16:10:24.542Z,6.15
2019-04-11T16:13:03.755Z,9.95
2019-04-11T16:15:34.139Z,7.08
2019-04-11T16:18:04.461Z,7.97
2019-04-11T16:20:33.166Z,7.78
2019-04-11T16:23:18.058Z,5.65
2019-04-11T16:25:48.144Z,7.60
2019-04-11T16:28:35.795Z,9.00
2019-04-11T16:31:04.569Z,11.38
2019-04-11T16:33:40.735Z,7.17
2019-04-11T16:36:14.352Z,6.22
2019-04-11T16:39:00.605Z,11.12
2019-04-11T16:41:46.931Z,7.37
2019-04-11T16:44:25.135Z,6.67
2019-04-11T16:47:03.977Z,7.15
2019-04-11T16:49:33.787Z,7.37
2019-04-11T16:52:02.814Z,14.87
2019-04-11T16:54:31.221Z,9.33
2019-04-11T16:57:00.047Z,8.85
2019-04-11T16:59:28.456Z,6.97
2019-04-11T17:01:57.191Z,6.92
2019-04-11T17:04:25.995Z,13.38
2019-04-11T17:06:56.584Z,8.78
2019-04-11T17:09:27.251Z,6.80
2019-04-11T17:11:56.814Z,7.10
2019-04-11T17:14:28.174Z,8.15
2019-04-11T17:16:56.222Z,8.13
2019-04-11T17:19:24.678Z,6.60
2019-04-11T17:21:53.377Z,8.65
2019-04-11T17:24:21.806Z,6.47
2019-04-11T17:26:52.418Z,9.28
2019-04-11T17:29:20.377Z,14.07
2019-04-11T17:31:48.716Z,6.22
2019-04-11T17:34:17.435Z,6.90
2019-04-11T17:36:45.869Z,5.65
2019-04-11T17:39:14.550Z,8.80
2019-04-11T17:41:43.267Z,6.40
2019-04-11T17:44:11.683Z,6.10
2019-04-11T17:46:40.203Z,8.65
2019-04-11T17:49:08.995Z,5.87
2019-04-11T17:51:37.693Z,5.70
2019-04-11T17:54:06.501Z,5.20
2019-04-11T17:56:35.194Z,8.08
2019-04-11T17:59:03.813Z,6.95
2019-04-11T18:01:33.501Z,6.22
2019-04-11T18:04:02.560Z,7.42
2019-04-11T18:06:31.010Z,6.08
2019-04-11T18:08:59.474Z,14.18
2019-04-11T18:11:28.169Z,9.05
2019-04-11T18:14:00.766Z,6.17
2019-04-11T18:16:28.825Z,5.37
2019-04-11T18:18:57.031Z,7.53
2019-04-11T18:21:25.789Z,6.83
2019-04-11T18:23:54.572Z,6.28
2019-04-11T18:26:23.255Z,6.17
2019-04-11T18:28:52.610Z,6.87
2019-04-11T18:31:24.774Z,6.53
2019-04-11T18:33:51.224Z,6.53
2019-04-11T18:36:21.178Z,6.78
2019-04-11T18:38:51.448Z,8.15
2019-04-11T18:41:25.758Z,6.80
2019-04-11T18:43:58.212Z,5.55
2019-04-11T18:46:30.084Z,6.30
2019-04-11T18:48:58.595Z,7.35
2019-04-11T18:51:27.288Z,7.05
2019-04-11T18:53:55.718Z,6.00
2019-04-11T18:56:24.122Z,7.17
2019-04-11T18:58:52.753Z,5.83
2019-04-11T19:01:21.319Z,7.25
2019-04-11T19:03:49.762Z,5.50
2019-04-11T19:06:27.487Z,5.20
2019-04-11T19:08:48.698Z,6.67
2019-04-11T19:11:17.118Z,6.05
2019-04-11T19:13:47.076Z,9.55
2019-04-11T19:16:16.181Z,8.20
2019-04-11T19:18:47.861Z,42.13
2019-04-11T19:21:15.201Z,61.40
2019-04-11T19:23:43.642Z,23.12
2019-04-11T19:26:14.485Z,41.42
2019-04-11T19:28:42.440Z,49.77
2019-04-11T19:31:12.294Z,7.97
2019-04-11T19:33:40.923Z,6.65
2019-04-11T19:36:12.238Z,5.12
2019-04-11T19:38:43.067Z,5.55
2019-04-11T19:41:10.757Z,6.75
2019-04-11T19:43:40.791Z,6.03
2019-04-11T19:46:09.395Z,4.80
2019-04-11T19:48:37.996Z,8.03
2019-04-11T19:51:06.748Z,4.37
2019-04-11T19:53:35.453Z,5.22
2019-04-11T19:56:06.024Z,6.28
2019-04-11T19:58:34.557Z,5.20
2019-04-11T20:01:03.030Z,6.47
2019-04-11T20:03:31.851Z,5.35
2019-04-11T20:06:00.308Z,5.83
2019-04-11T20:08:28.992Z,7.42
2019-04-11T20:11:01.064Z,7.35
2019-04-11T20:13:31.980Z,7.67
2019-04-11T20:16:07.085Z,7.50
2019-04-11T20:18:35.547Z,8.25
2019-04-11T20:21:07.269Z,6.47
2019-04-11T20:23:34.528Z,5.25
2019-04-11T20:26:03.259Z,8.18
2019-04-11T20:28:31.774Z,5.80
2019-04-11T20:31:00.503Z,5.33
2019-04-11T20:33:33.868Z,5.75
2019-04-11T20:35:59.247Z,4.83
2019-04-11T20:38:27.940Z,9.35
2019-04-11T20:40:56.387Z,5.75
2019-04-11T20:43:25.759Z,6.50
2019-04-11T20:45:54.218Z,5.92
2019-04-11T20:48:22.735Z,7.80
2019-04-11T20:50:51.463Z,5.08
2019-04-11T20:53:19.898Z,5.78
2019-04-11T20:55:48.302Z,5.72
2019-04-11T20:58:26.747Z,5.62
2019-04-11T21:00:50.901Z,4.67
2019-04-11T21:03:17.166Z,8.08
2019-04-11T21:05:45.575Z,11.90
2019-04-11T21:08:14.003Z,7.10
2019-04-11T21:10:42.766Z,5.42
2019-04-11T21:13:16.983Z,5.47
2019-04-11T21:15:45.967Z,6.20
2019-04-11T21:18:14.699Z,5.03
2019-04-11T21:20:43.650Z,6.17
2019-04-11T21:23:23.752Z,5.10
2019-04-11T21:25:42.564Z,7.12
2019-04-11T21:28:11.383Z,6.55
2019-04-11T21:30:40.115Z,4.60
2019-04-11T21:33:08.898Z,4.83
2019-04-11T21:35:37.346Z,3.98
2019-04-11T21:38:06.524Z,4.47
2019-04-11T21:40:35.919Z,3.50
2019-04-11T21:43:06.206Z,6.75
2019-04-11T21:45:35.999Z,4.75
2019-04-11T21:48:06.599Z,4.28
2019-04-11T21:50:35.062Z,4.30
2019-04-11T21:53:03.570Z,4.95
2019-04-11T21:55:32.295Z,5.45
2019-04-11T21:58:00.739Z,5.12
2019-04-11T22:00:40.148Z,5.40
2019-04-11T22:03:08.723Z,4.92
2019-04-11T22:05:37.214Z,5.62
2019-04-11T22:08:05.658Z,4.85
2019-04-11T22:10:34.122Z,5.17
2019-04-11T22:13:03.032Z,4.58
2019-04-11T22:15:31.516Z,5.85
2019-04-11T22:17:59.962Z,4.12
2019-04-11T22:20:28.395Z,5.05
2019-04-11T22:22:56.799Z,3.30
2019-04-11T22:25:25.237Z,4.62
2019-04-11T22:27:54.399Z,4.37
2019-04-11T22:30:25.342Z,6.40
2019-04-11T22:32:57.448Z,3.75
2019-04-11T22:35:28.597Z,7.20
2019-04-11T22:37:59.664Z,4.75
2019-04-11T22:40:25.918Z,5.35
2019-04-11T22:42:54.335Z,5.30
2019-04-11T22:45:22.771Z,4.00
2019-04-11T22:47:51.496Z,5.42
2019-04-11T22:50:20.272Z,6.35
2019-04-11T22:52:48.668Z,7.25
2019-04-11T22:55:17.104Z,4.55
2019-04-11T22:57:45.514Z,6.00
2019-04-11T23:00:15.323Z,6.85
2019-04-11T23:03:02.167Z,6.05
2019-04-11T23:05:30.637Z,5.85
2019-04-11T23:07:59.455Z,4.05
2019-04-11T23:10:27.890Z,4.92
2019-04-11T23:12:56.579Z,5.60
2019-04-11T23:15:25.231Z,4.95
2019-04-11T23:17:53.780Z,5.42
2019-04-11T23:20:22.508Z,4.33
2019-04-11T23:22:51.201Z,4.03
2019-04-11T23:25:19.782Z,5.30
2019-04-11T23:27:48.495Z,4.40
2019-04-11T23:30:18.461Z,5.05
2019-04-11T23:32:50.843Z,4.85
2019-04-11T23:35:17.831Z,5.97
2019-04-11T23:37:51.107Z,6.85
2019-04-11T23:40:21.633Z,4.80
2019-04-11T23:42:50.873Z,4.85
2019-04-11T23:45:23.859Z,5.42
2019-04-11T23:50:24.961Z,4.45
2019-04-11T23:52:52.050Z,4.78
2019-04-11T23:55:20.777Z,4.00
2019-04-11T23:57:49.206Z,3.87
